Andrews, TX

12:54 PM CDT on September 30, 2014 (GMT -0500)
Near Hospital - Andrews | Change Station
CLOSE
Current Station
Personal Weather Station
Location: Andrews, TX
Elevation: 3178 ft
Nearby Weather Stations

Elev 3178 ft 32.34 °N, 102.54 °W | Updated 5 seconds ago

Clear
Clear
89.4 °F
Feels Like 85 °F
N
8.7
Wind Variable Wind from SSW
Gusts 8.7 mph

Today
High -- | Low -- °F
--% Chance of Precip.
Yesterday
High -- | Low -- °F
Precip. -- in
7:43 AM 7:36 PM
Waxing Crescent, 38% visible
Pressure 29.90 in
Visibility 10.0 miles
Clouds Clear
Heat Index 85 °F
Dew Point 26 °F
Humidity 10%
Rainfall 0.00 in
Snow Depth Not available.
UV 8 out of 12
Pollen 8.30 out of 12
Air Quality Not available.
Flu Activity Not available.
METAR KE11 301735Z AUTO 25007G16KT 10SM CLR 28/15 A2990 RMK AO2 T02830148

More Conditions Fewer Conditions

Pressure 29.90 in
Visibility 10.0 miles
Clouds Clear
Heat Index 85 °F
Dew Point 26 °F
Humidity 10%
Rainfall 0.00 in
Snow Depth Not available.
UV 8 out of 12
Pollen 8.30 out of 12
Air Quality Not available.
Flu Activity Not available.
METAR KE11 301735Z AUTO 25007G16KT 10SM CLR 28/15 A2990 RMK AO2 T02830148

More Conditions Fewer Conditions

10-Day Weather Forecast

Almanac

Astronomy

Sep. 30, 2014 Rise Set
Actual Time 7:43 AM CDT 7:36 PM CDT
Civil Twilight 7:19 AM CDT 8:00 PM CDT
Nautical Twilight 6:50 AM CDT 8:29 PM CDT
Astronomical Twilight 6:22 AM CDT 8:57 PM CDT
Moon 1:38 PM CDT No Moon Set
Length of Visible Light 12h 41m
Length of Day
11h 52m
Tomorrow will be 1m 57s shorter.
Waxing Crescent, 38% of the Moon is Illuminated
Today
Waxing Crescent
Oct 1
First Quarter
Oct 8
Full
Oct 15
Last Quarter
Oct 23
New

Today's Extremes

State Highs State Lows

Community

WunderPhotos

Upload Photos

1,757,693 photos uploaded!

Nearby

Snow Depth

Station Depth Elevation
No new snow has been reported.

Earthquake Activity

City Distance Mag. Time & Date
No recent earthquake activity has been reported nearby.
Minimum magnitude displayed is 2.5.

Coastal Water Temperatures

Place Temperature
No Stations Reporting

Nearby Weather Stations